LOG55JF EGPR-EGPF

Flight info

Callsign LOG55JF
Flight time 0h 47m
Altitude 7000
Route VRP/GREENOCK
Aircraft DHC6/L-SDFGHRWY/L

Departure

Time 2026-05-06 14:42
Airport Barra Airport (EGPR)

Arrival

Time 2026-05-06 15:29
Airport Glasgow Airport (EGPF)
Time Latitude Longitude Altitude Speed Heading
2026-05-06 14:33 57.02555 -7.44853 5 ft 0 kts 58°
2026-05-06 14:41 57.02555 -7.44852 5 ft 2 kts 58°
2026-05-06 14:41 57.02523 -7.44691 5 ft 39 kts 136°
2026-05-06 14:41 57.02100 -7.43966 60 ft 111 kts 137°
2026-05-06 14:42 57.01608 -7.42900 439 ft 104 kts 128°
2026-05-06 14:42 57.01188 -7.41727 639 ft 118 kts 126°
2026-05-06 14:42 57.00742 -7.40412 911 ft 124 kts 124°
2026-05-06 14:42 57.00276 -7.39077 1229 ft 125 kts 126°
2026-05-06 14:43 56.99786 -7.37750 1537 ft 127 kts 127°
2026-05-06 14:43 56.99291 -7.36403 1850 ft 128 kts 126°
2026-05-06 14:43 56.98804 -7.35023 2153 ft 130 kts 124°
2026-05-06 14:43 56.98325 -7.33591 2461 ft 133 kts 123°
2026-05-06 14:44 56.97908 -7.32101 2763 ft 130 kts 120°
2026-05-06 14:44 56.97532 -7.30566 2995 ft 133 kts 117°
2026-05-06 14:44 56.97171 -7.28985 3231 ft 136 kts 116°
2026-05-06 14:45 56.96422 -7.25739 3701 ft 141 kts 117°
2026-05-06 14:45 56.96030 -7.24084 3936 ft 142 kts 117°
2026-05-06 14:45 56.95635 -7.22414 4164 ft 144 kts 116°
2026-05-06 14:45 56.95246 -7.20729 4392 ft 144 kts 116°
2026-05-06 14:46 56.94862 -7.19023 4618 ft 145 kts 115°
2026-05-06 14:46 56.94474 -7.17307 4846 ft 146 kts 115°
2026-05-06 14:46 56.94083 -7.15582 5069 ft 147 kts 116°
2026-05-06 14:46 56.93692 -7.13855 5294 ft 148 kts 115°
2026-05-06 14:47 56.93291 -7.12109 5520 ft 149 kts 116°
2026-05-06 14:47 56.92886 -7.10354 5745 ft 150 kts 116°
2026-05-06 14:47 56.92477 -7.08590 5972 ft 152 kts 116°
2026-05-06 14:47 56.92063 -7.06811 6196 ft 153 kts 116°
2026-05-06 14:48 56.91642 -7.05021 6424 ft 153 kts 116°
2026-05-06 14:48 56.91216 -7.03230 6647 ft 154 kts 116°
2026-05-06 14:48 56.90786 -7.01433 6846 ft 156 kts 116°
2026-05-06 14:48 56.90339 -6.99584 6973 ft 162 kts 116°
2026-05-06 14:49 56.89869 -6.97670 7016 ft 168 kts 116°
2026-05-06 14:49 56.89382 -6.95703 7013 ft 172 kts 117°
2026-05-06 14:49 56.88885 -6.93698 7009 ft 174 kts 117°
2026-05-06 14:49 56.88383 -6.91680 7007 ft 175 kts 117°
2026-05-06 14:50 56.87875 -6.89644 7006 ft 176 kts 117°
2026-05-06 14:50 56.87364 -6.87608 6998 ft 177 kts 117°
2026-05-06 14:50 56.86851 -6.85562 6988 ft 177 kts 117°
2026-05-06 14:50 56.86342 -6.83534 6985 ft 176 kts 117°
2026-05-06 14:51 56.85834 -6.81499 6983 ft 176 kts 117°
2026-05-06 14:51 56.85325 -6.79466 6984 ft 176 kts 117°
2026-05-06 14:51 56.84818 -6.77441 6988 ft 176 kts 117°
2026-05-06 14:51 56.84310 -6.75413 6989 ft 176 kts 117°
2026-05-06 14:52 56.83801 -6.73379 6989 ft 176 kts 117°
2026-05-06 14:52 56.83294 -6.71349 6990 ft 176 kts 117°
2026-05-06 14:52 56.82789 -6.69324 6988 ft 176 kts 117°
2026-05-06 14:52 56.82282 -6.67291 6990 ft 176 kts 117°
2026-05-06 14:53 56.81776 -6.65255 6988 ft 176 kts 116°
2026-05-06 14:53 56.81271 -6.63222 6988 ft 176 kts 117°
2026-05-06 14:53 56.80769 -6.61191 6988 ft 176 kts 116°
2026-05-06 14:53 56.80265 -6.59152 6988 ft 176 kts 116°
2026-05-06 14:54 56.79763 -6.57117 6988 ft 176 kts 116°
2026-05-06 14:54 56.79261 -6.55083 6989 ft 176 kts 116°
2026-05-06 14:54 56.78762 -6.53055 6991 ft 176 kts 116°
2026-05-06 14:54 56.78263 -6.51021 6992 ft 176 kts 116°
2026-05-06 14:55 56.77763 -6.48982 6993 ft 176 kts 117°
2026-05-06 14:55 56.77264 -6.46946 6997 ft 176 kts 116°
2026-05-06 14:55 56.76767 -6.44921 6999 ft 176 kts 116°
2026-05-06 14:55 56.76269 -6.42885 6998 ft 176 kts 116°
2026-05-06 14:56 56.75770 -6.40846 6996 ft 176 kts 116°
2026-05-06 14:56 56.75266 -6.38812 6996 ft 176 kts 118°
2026-05-06 14:56 56.74694 -6.36851 6999 ft 175 kts 122°
2026-05-06 14:56 56.74077 -6.34950 6999 ft 175 kts 124°
2026-05-06 14:57 56.73440 -6.33059 6998 ft 175 kts 124°
2026-05-06 14:57 56.72804 -6.31169 6999 ft 175 kts 124°
2026-05-06 14:57 56.72170 -6.29283 7001 ft 175 kts 124°
2026-05-06 14:57 56.71536 -6.27387 7000 ft 175 kts 123°
2026-05-06 14:58 56.71057 -6.25954 7000 ft 175 kts 124°
2026-05-06 14:58 56.70448 -6.24131 6999 ft 175 kts 123°
2026-05-06 14:58 56.69814 -6.22231 6999 ft 175 kts 123°
2026-05-06 14:58 56.69158 -6.20374 7000 ft 175 kts 128°
2026-05-06 14:59 56.68465 -6.18559 7000 ft 175 kts 127°
2026-05-06 14:59 56.67775 -6.16742 7000 ft 175 kts 127°
2026-05-06 14:59 56.67085 -6.14920 7000 ft 175 kts 127°
2026-05-06 14:59 56.66628 -6.13709 6999 ft 175 kts 127°
2026-05-06 15:00 56.65939 -6.11886 6999 ft 175 kts 127°
2026-05-06 15:00 56.65256 -6.10065 7002 ft 174 kts 127°
2026-05-06 15:00 56.64542 -6.08308 7000 ft 173 kts 129°
2026-05-06 15:00 56.63819 -6.06555 6999 ft 173 kts 130°
2026-05-06 15:01 56.63086 -6.04829 6999 ft 173 kts 130°
2026-05-06 15:01 56.62356 -6.03121 7000 ft 172 kts 130°
2026-05-06 15:01 56.61618 -6.01396 6999 ft 172 kts 130°
2026-05-06 15:01 56.60884 -5.99682 7000 ft 172 kts 130°
2026-05-06 15:02 56.60150 -5.97966 7001 ft 172 kts 130°
2026-05-06 15:02 56.59421 -5.96261 7000 ft 172 kts 130°
2026-05-06 15:02 56.58690 -5.94547 7001 ft 172 kts 130°
2026-05-06 15:02 56.57961 -5.92834 7002 ft 171 kts 130°
2026-05-06 15:03 56.57233 -5.91122 7001 ft 171 kts 130°
2026-05-06 15:03 56.56509 -5.89417 7001 ft 171 kts 130°
2026-05-06 15:03 56.55783 -5.87704 7002 ft 171 kts 130°
2026-05-06 15:03 56.55060 -5.85989 7001 ft 171 kts 130°
2026-05-06 15:04 56.54337 -5.84276 7003 ft 171 kts 130°
2026-05-06 15:04 56.53614 -5.82564 7002 ft 171 kts 130°
2026-05-06 15:04 56.52898 -5.80854 7002 ft 171 kts 129°
2026-05-06 15:04 56.52188 -5.79126 7002 ft 171 kts 129°
2026-05-06 15:05 56.51482 -5.77392 7003 ft 171 kts 129°
2026-05-06 15:05 56.50781 -5.75664 7002 ft 171 kts 129°
2026-05-06 15:05 56.50079 -5.73930 7003 ft 171 kts 129°
2026-05-06 15:05 56.49377 -5.72193 7002 ft 171 kts 129°
2026-05-06 15:06 56.48678 -5.70453 7002 ft 171 kts 128°
2026-05-06 15:06 56.47982 -5.68724 7002 ft 171 kts 128°
2026-05-06 15:06 56.47284 -5.66983 7003 ft 171 kts 128°
2026-05-06 15:06 56.46588 -5.65248 7002 ft 171 kts 128°
2026-05-06 15:07 56.45894 -5.63512 7002 ft 171 kts 128°
2026-05-06 15:07 56.45200 -5.61771 7002 ft 171 kts 128°
2026-05-06 15:07 56.44509 -5.60034 7004 ft 170 kts 128°
2026-05-06 15:07 56.43818 -5.58295 7003 ft 170 kts 128°
2026-05-06 15:08 56.43129 -5.56554 7004 ft 170 kts 128°
2026-05-06 15:08 56.42443 -5.54819 7003 ft 170 kts 128°
2026-05-06 15:08 56.41757 -5.53079 7005 ft 170 kts 128°
2026-05-06 15:08 56.41073 -5.51340 7005 ft 170 kts 128°
2026-05-06 15:09 56.40378 -5.49615 7004 ft 170 kts 129°
2026-05-06 15:09 56.39637 -5.47977 7003 ft 169 kts 136°
2026-05-06 15:09 56.38819 -5.46465 7006 ft 168 kts 137°
2026-05-06 15:09 56.38004 -5.44944 7005 ft 169 kts 136°
2026-05-06 15:10 56.37191 -5.43421 7005 ft 168 kts 136°
2026-05-06 15:10 56.36381 -5.41902 7005 ft 168 kts 136°
2026-05-06 15:10 56.35571 -5.40379 7004 ft 168 kts 136°
2026-05-06 15:10 56.34763 -5.38851 7004 ft 168 kts 136°
2026-05-06 15:11 56.33960 -5.37328 7006 ft 168 kts 136°
2026-05-06 15:11 56.33155 -5.35799 7005 ft 168 kts 136°
2026-05-06 15:11 56.32350 -5.34265 7004 ft 168 kts 136°
2026-05-06 15:11 56.31548 -5.32738 7004 ft 168 kts 136°
2026-05-06 15:12 56.30743 -5.31222 7005 ft 168 kts 137°
2026-05-06 15:12 56.29906 -5.29767 7004 ft 167 kts 139°
2026-05-06 15:12 56.29055 -5.28338 7005 ft 167 kts 140°
2026-05-06 15:12 56.28201 -5.26917 7004 ft 167 kts 140°
2026-05-06 15:13 56.27351 -5.25499 7004 ft 167 kts 140°
2026-05-06 15:13 56.26501 -5.24077 7004 ft 167 kts 139°
2026-05-06 15:13 56.25648 -5.22656 7004 ft 167 kts 141°
2026-05-06 15:13 56.24741 -5.21315 6834 ft 168 kts 144°
2026-05-06 15:14 56.23826 -5.20044 6580 ft 166 kts 144°
2026-05-06 15:14 56.22908 -5.18804 6326 ft 164 kts 145°
2026-05-06 15:14 56.21999 -5.17583 6077 ft 163 kts 145°
2026-05-06 15:14 56.21099 -5.16382 5827 ft 160 kts 145°
2026-05-06 15:15 56.20212 -5.15210 5572 ft 157 kts 145°
2026-05-06 15:15 56.19337 -5.14066 5319 ft 155 kts 145°
2026-05-06 15:15 56.18467 -5.12946 5068 ft 154 kts 146°
2026-05-06 15:15 56.17597 -5.11840 4817 ft 153 kts 146°
2026-05-06 15:16 56.16728 -5.10746 4567 ft 152 kts 145°
2026-05-06 15:16 56.15871 -5.09639 4316 ft 152 kts 145°
2026-05-06 15:16 56.15022 -5.08538 4067 ft 151 kts 145°
2026-05-06 15:16 56.14172 -5.07440 3818 ft 150 kts 145°
2026-05-06 15:17 56.13322 -5.06350 3569 ft 150 kts 145°
2026-05-06 15:17 56.12475 -5.05268 3320 ft 150 kts 146°
2026-05-06 15:17 56.11592 -5.04149 3135 ft 160 kts 146°
2026-05-06 15:17 56.10687 -5.02936 3041 ft 164 kts 143°
2026-05-06 15:18 56.09796 -5.01685 3006 ft 163 kts 142°
2026-05-06 15:18 56.08915 -5.00431 2998 ft 161 kts 142°
2026-05-06 15:18 56.08042 -4.99181 3000 ft 160 kts 142°
2026-05-06 15:18 56.07177 -4.97942 3001 ft 160 kts 142°
2026-05-06 15:19 56.06307 -4.96701 3001 ft 160 kts 142°
2026-05-06 15:19 56.05435 -4.95459 3002 ft 160 kts 142°
2026-05-06 15:19 56.04561 -4.94215 3002 ft 161 kts 142°
2026-05-06 15:19 56.03687 -4.92973 3000 ft 161 kts 142°
2026-05-06 15:20 56.02814 -4.91736 3000 ft 161 kts 142°
2026-05-06 15:20 56.01935 -4.90496 3000 ft 161 kts 142°
2026-05-06 15:20 56.01057 -4.89257 3000 ft 161 kts 142°
2026-05-06 15:20 56.00189 -4.87999 3000 ft 161 kts 140°
2026-05-06 15:21 55.99364 -4.86653 3001 ft 161 kts 139°
2026-05-06 15:21 55.98564 -4.85251 3001 ft 161 kts 134°
2026-05-06 15:21 55.97832 -4.83735 2984 ft 163 kts 131°
2026-05-06 15:21 55.97149 -4.82029 2722 ft 174 kts 124°
2026-05-06 15:22 55.96513 -4.80239 2435 ft 168 kts 122°
2026-05-06 15:22 55.95964 -4.78418 2135 ft 165 kts 118°
2026-05-06 15:22 55.95416 -4.76631 1832 ft 163 kts 119°
2026-05-06 15:22 55.94826 -4.74930 1612 ft 159 kts 123°
2026-05-06 15:23 55.94204 -4.73355 1511 ft 154 kts 129°
2026-05-06 15:23 55.93518 -4.71921 1489 ft 152 kts 130°
2026-05-06 15:23 55.92825 -4.70500 1499 ft 152 kts 130°
2026-05-06 15:23 55.92092 -4.69131 1503 ft 153 kts 133°
2026-05-06 15:24 55.91338 -4.67790 1502 ft 154 kts 133°
2026-05-06 15:24 55.90611 -4.66430 1495 ft 149 kts 132°
2026-05-06 15:24 55.89908 -4.65101 1492 ft 146 kts 133°
2026-05-06 15:24 55.89185 -4.63825 1421 ft 150 kts 135°
2026-05-06 15:25 55.88421 -4.62517 1242 ft 155 kts 135°
2026-05-06 15:25 55.87634 -4.61191 1095 ft 156 kts 134°
2026-05-06 15:25 55.86841 -4.59890 1010 ft 152 kts 135°
2026-05-06 15:25 55.86147 -4.58526 989 ft 145 kts 127°
2026-05-06 15:26 55.85578 -4.57087 994 ft 139 kts 123°
2026-05-06 15:26 55.85053 -4.55813 1009 ft 122 kts 123°
2026-05-06 15:26 55.84539 -4.54648 978 ft 116 kts 126°
2026-05-06 15:26 55.84090 -4.53521 964 ft 108 kts 116°
2026-05-06 15:27 55.83878 -4.52292 972 ft 99 kts 92°
2026-05-06 15:27 55.83941 -4.51112 902 ft 101 kts 79°
2026-05-06 15:27 55.84090 -4.49874 791 ft 104 kts 71°
2026-05-06 15:27 55.84368 -4.48712 697 ft 102 kts 57°
2026-05-06 15:28 55.84819 -4.47753 514 ft 101 kts 45°
2026-05-06 15:28 55.85298 -4.46845 378 ft 101 kts 45°
2026-05-06 15:28 55.85771 -4.45986 242 ft 100 kts 44°
2026-05-06 15:28 55.86222 -4.45149 97 ft 86 kts 46°
2026-05-06 15:29 55.86581 -4.44479 31 ft 55 kts 46°
2026-05-06 15:29 55.86767 -4.44130 31 ft 29 kts 46°
2026-05-06 15:29 55.86874 -4.43930 31 ft 17 kts 45°
2026-05-06 15:29 55.86994 -4.43706 31 ft 22 kts 48°
2026-05-06 15:30 55.86981 -4.43646 31 ft 19 kts 194°
2026-05-06 15:30 55.86864 -4.43728 31 ft 17 kts 201°
2026-05-06 15:30 55.86752 -4.43790 31 ft 14 kts 183°
2026-05-06 15:30 55.86736 -4.43686 31 ft 12 kts 72°
2026-05-06 15:31 55.86768 -4.43506 31 ft 11 kts 74°
2026-05-06 15:31 55.86746 -4.43463 31 ft 5 kts 175°
2026-05-06 15:31 55.86714 -4.43447 31 ft 1 kts 166°